createdAt,value
2022-08-23T00:00:26.862Z,0.00
2022-08-23T00:01:27.917Z,0.00
2022-08-23T00:02:26.945Z,0.00
2022-08-23T00:03:26.806Z,0.00
2022-08-23T00:04:32.105Z,0.00
2022-08-23T00:05:27.767Z,0.00
2022-08-23T00:06:26.746Z,0.00
2022-08-23T00:07:26.724Z,0.00
2022-08-23T00:08:26.703Z,0.00
2022-08-23T00:09:26.713Z,0.00
2022-08-23T00:10:26.663Z,0.00
2022-08-23T00:11:26.643Z,0.00
2022-08-23T00:12:26.623Z,0.00
2022-08-23T00:13:26.605Z,0.00
2022-08-23T00:14:27.611Z,0.00
2022-08-23T00:15:26.568Z,0.00
2022-08-23T00:16:26.542Z,0.00
2022-08-23T00:17:33.646Z,0.00
2022-08-23T00:18:27.502Z,0.00
2022-08-23T00:19:26.513Z,0.00
2022-08-23T00:20:26.464Z,0.00
2022-08-23T00:21:26.446Z,0.00
2022-08-23T00:22:26.432Z,0.00
2022-08-23T00:23:26.411Z,0.00
2022-08-23T00:24:26.416Z,0.00
2022-08-23T00:25:26.372Z,0.00
2022-08-23T00:26:26.352Z,0.00
2022-08-23T00:27:26.331Z,0.00
2022-08-23T00:28:26.311Z,0.00
2022-08-23T00:29:26.320Z,0.00
2022-08-23T00:30:26.268Z,0.00
2022-08-23T00:31:26.252Z,0.00
2022-08-23T00:32:26.233Z,0.00
2022-08-23T00:33:26.212Z,0.00
2022-08-23T00:34:26.219Z,0.00
2022-08-23T00:35:27.105Z,0.00
2022-08-23T00:36:26.151Z,0.00
2022-08-23T00:37:26.131Z,0.00
2022-08-23T00:38:34.434Z,0.00
2022-08-23T00:39:27.129Z,0.00
2022-08-23T00:40:26.151Z,0.00
2022-08-23T00:41:26.053Z,0.00
2022-08-23T00:42:26.032Z,0.00
2022-08-23T00:43:26.013Z,0.00
2022-08-23T00:44:26.021Z,0.00
2022-08-23T00:45:25.975Z,0.00
2022-08-23T00:46:25.970Z,0.00
2022-08-23T00:47:25.934Z,0.00
2022-08-23T00:48:25.912Z,0.00
2022-08-23T00:49:25.916Z,0.00
2022-08-23T00:50:25.872Z,0.00
2022-08-23T00:51:25.849Z,0.00
2022-08-23T00:52:25.826Z,0.00
2022-08-23T00:53:25.809Z,0.00
2022-08-23T00:54:25.817Z,0.00
2022-08-23T00:55:25.768Z,0.00
2022-08-23T00:56:25.749Z,0.00
2022-08-23T00:57:25.726Z,0.00
2022-08-23T00:58:25.711Z,0.00
2022-08-23T00:59:25.718Z,0.00
2022-08-23T01:00:25.670Z,0.00
2022-08-23T01:01:25.695Z,0.00
2022-08-23T01:02:25.632Z,0.00
2022-08-23T01:03:25.609Z,0.00
2022-08-23T01:04:25.618Z,0.00
2022-08-23T01:05:25.568Z,0.00
2022-08-23T01:06:25.552Z,0.00
2022-08-23T01:07:25.532Z,0.00
2022-08-23T01:08:25.515Z,0.00
2022-08-23T01:09:25.521Z,0.00
2022-08-23T01:10:25.458Z,0.00
2022-08-23T01:11:26.450Z,0.00
2022-08-23T01:12:32.171Z,0.00
2022-08-23T01:13:26.407Z,0.00
2022-08-23T01:14:25.419Z,0.00
2022-08-23T01:15:25.365Z,0.00
2022-08-23T01:16:25.350Z,0.00
2022-08-23T01:17:25.335Z,0.00
2022-08-23T01:18:25.310Z,0.00
2022-08-23T01:19:25.317Z,0.00
2022-08-23T01:20:27.030Z,0.00
2022-08-23T01:21:25.250Z,0.00
2022-08-23T01:22:25.230Z,0.00
2022-08-23T01:23:25.213Z,0.00
2022-08-23T01:25:06.513Z,0.00
2022-08-23T01:25:26.177Z,0.00
2022-08-23T01:26:25.156Z,0.00
2022-08-23T01:27:25.140Z,0.00
2022-08-23T01:28:25.114Z,0.00
2022-08-23T01:29:25.118Z,0.00
2022-08-23T01:30:25.075Z,0.00
2022-08-23T01:31:25.050Z,0.00
2022-08-23T01:32:25.028Z,0.00
2022-08-23T01:33:25.006Z,0.00
2022-08-23T01:34:25.023Z,0.00
2022-08-23T01:36:24.948Z,0.00
2022-08-23T01:37:24.929Z,0.00
2022-08-23T01:38:24.906Z,0.00
2022-08-23T01:39:24.915Z,0.00
2022-08-23T01:40:24.943Z,0.00
2022-08-23T01:41:24.844Z,0.00
2022-08-23T01:42:24.821Z,0.00
2022-08-23T01:43:24.807Z,0.00
2022-08-23T01:44:24.813Z,0.00
2022-08-23T01:45:24.769Z,0.00
2022-08-23T01:46:24.747Z,0.00
2022-08-23T01:47:24.726Z,0.00
2022-08-23T01:48:24.708Z,0.00
2022-08-23T01:49:24.719Z,0.00
2022-08-23T01:50:24.782Z,0.00
2022-08-23T01:51:24.651Z,0.00
2022-08-23T01:52:24.634Z,0.00
2022-08-23T01:53:24.639Z,0.00
2022-08-23T01:54:24.618Z,0.00
2022-08-23T01:55:24.566Z,0.00
2022-08-23T01:56:38.223Z,0.00
2022-08-23T01:57:25.525Z,0.00
2022-08-23T01:58:24.512Z,0.00
2022-08-23T01:59:24.518Z,0.00
2022-08-23T02:00:24.465Z,0.00
2022-08-23T02:01:24.505Z,0.00
2022-08-23T02:02:24.427Z,0.00
2022-08-23T02:03:24.408Z,0.00
2022-08-23T02:04:24.420Z,0.00
2022-08-23T02:05:24.371Z,0.00
2022-08-23T02:06:24.351Z,0.00
2022-08-23T02:07:24.328Z,0.00
2022-08-23T02:08:24.308Z,0.00
2022-08-23T02:09:25.652Z,0.00
2022-08-23T02:10:24.265Z,0.00
2022-08-23T02:11:24.245Z,0.00
2022-08-23T02:12:24.225Z,0.00
2022-08-23T02:13:24.208Z,0.00
2022-08-23T02:14:24.208Z,0.00
2022-08-23T02:15:24.163Z,0.00
2022-08-23T02:16:24.144Z,0.00
2022-08-23T02:17:24.120Z,0.00
2022-08-23T02:18:24.102Z,0.00
2022-08-23T02:19:24.112Z,0.00
2022-08-23T02:20:24.056Z,0.00
2022-08-23T02:21:24.045Z,0.00
2022-08-23T02:22:24.017Z,0.00
2022-08-23T02:23:23.999Z,0.00
2022-08-23T02:24:24.007Z,0.00
2022-08-23T02:25:23.961Z,0.00
2022-08-23T02:26:30.751Z,0.00
2022-08-23T02:27:25.043Z,0.00
2022-08-23T02:28:23.901Z,0.00
2022-08-23T02:29:23.912Z,0.00
2022-08-23T02:30:23.862Z,0.00
2022-08-23T02:31:23.843Z,0.00
2022-08-23T02:32:26.931Z,0.00
2022-08-23T02:33:23.798Z,0.00
2022-08-23T02:34:38.465Z,0.00
2022-08-23T02:35:23.827Z,0.00
2022-08-23T02:36:23.812Z,0.00
2022-08-23T02:37:23.789Z,0.00
2022-08-23T02:38:23.760Z,0.00
2022-08-23T02:39:23.767Z,0.00
2022-08-23T02:40:23.757Z,0.00
2022-08-23T02:41:23.695Z,0.00
2022-08-23T02:42:23.679Z,0.00
2022-08-23T02:43:23.659Z,0.00
2022-08-23T02:44:23.665Z,0.00
2022-08-23T02:45:23.617Z,0.00
2022-08-23T02:46:23.594Z,0.00
2022-08-23T02:47:23.581Z,0.00
2022-08-23T02:48:23.556Z,0.00
2022-08-23T02:49:23.564Z,0.00
2022-08-23T02:50:23.525Z,0.00
2022-08-23T02:51:23.499Z,0.00
2022-08-23T02:52:23.478Z,0.00
2022-08-23T02:53:23.452Z,0.00
2022-08-23T02:54:24.461Z,0.00
2022-08-23T02:55:23.415Z,0.00
2022-08-23T02:56:23.393Z,0.00
2022-08-23T02:57:23.372Z,0.00
2022-08-23T02:58:23.351Z,0.00
2022-08-23T02:59:23.364Z,0.00
2022-08-23T03:00:23.312Z,0.00
2022-08-23T03:01:23.294Z,0.00
2022-08-23T03:02:23.313Z,0.00
2022-08-23T03:03:23.247Z,0.00
2022-08-23T03:04:23.228Z,0.00
2022-08-23T03:05:23.233Z,0.00
2022-08-23T03:06:24.560Z,0.00
2022-08-23T03:07:23.176Z,0.00
2022-08-23T03:08:23.150Z,0.00
2022-08-23T03:09:23.134Z,0.00
2022-08-23T03:10:23.134Z,0.00
2022-08-23T03:11:23.083Z,0.00
2022-08-23T03:12:23.066Z,0.00
2022-08-23T03:13:23.046Z,0.00
2022-08-23T03:14:23.030Z,0.00
2022-08-23T03:15:23.035Z,0.00
2022-08-23T03:16:22.988Z,0.00
2022-08-23T03:17:22.971Z,0.00
2022-08-23T03:18:22.942Z,0.00
2022-08-23T03:19:22.926Z,0.00
2022-08-23T03:20:22.932Z,0.00
2022-08-23T03:21:22.889Z,0.00
2022-08-23T03:22:22.873Z,0.00
2022-08-23T03:23:22.853Z,0.00
2022-08-23T03:24:22.828Z,0.00
2022-08-23T03:25:22.839Z,0.00
2022-08-23T03:26:22.785Z,0.00
2022-08-23T03:27:22.772Z,0.00
2022-08-23T03:28:22.739Z,0.00
2022-08-23T03:29:22.726Z,0.00
2022-08-23T03:30:22.696Z,0.00
2022-08-23T03:31:22.623Z,0.00
2022-08-23T03:32:22.602Z,0.00
2022-08-23T03:33:22.590Z,0.00
2022-08-23T03:34:22.562Z,0.00
2022-08-23T03:35:22.570Z,0.00
2022-08-23T03:36:27.819Z,0.00
2022-08-23T03:37:23.509Z,0.00
2022-08-23T03:38:22.484Z,0.00
2022-08-23T03:39:22.465Z,0.00
2022-08-23T03:40:22.508Z,0.00
2022-08-23T03:41:22.423Z,0.00
2022-08-23T03:42:22.405Z,0.00
2022-08-23T03:43:23.385Z,0.00
2022-08-23T03:44:22.365Z,0.00
2022-08-23T03:45:22.368Z,0.00
2022-08-23T03:46:22.324Z,0.00
2022-08-23T03:47:22.303Z,4.00
2022-08-23T03:48:22.285Z,4.00
2022-08-23T03:49:22.265Z,4.00
2022-08-23T03:50:22.277Z,0.00
2022-08-23T03:51:22.224Z,4.00
2022-08-23T03:52:22.203Z,4.00
2022-08-23T03:53:22.184Z,4.00
2022-08-23T03:54:22.853Z,4.00
2022-08-23T03:55:22.176Z,4.00
2022-08-23T03:56:22.120Z,8.00
2022-08-23T03:57:22.102Z,4.00
2022-08-23T03:58:22.083Z,4.00
2022-08-23T03:59:22.060Z,8.00
2022-08-23T04:00:22.074Z,12.00
2022-08-23T04:01:26.479Z,8.00
2022-08-23T04:02:24.007Z,12.00
2022-08-23T04:03:21.981Z,16.00
2022-08-23T04:04:21.963Z,16.00
2022-08-23T04:05:21.970Z,20.00
2022-08-23T04:06:21.924Z,24.00
2022-08-23T04:07:21.903Z,24.00
2022-08-23T04:08:31.889Z,28.00
2022-08-23T04:09:22.864Z,32.00
2022-08-23T04:10:21.870Z,36.00
2022-08-23T04:11:21.828Z,40.00
2022-08-23T04:12:21.805Z,48.00
2022-08-23T04:13:21.787Z,52.00
2022-08-23T04:14:21.764Z,56.00
2022-08-23T04:15:21.770Z,64.00
2022-08-23T04:16:21.725Z,64.00
2022-08-23T04:17:21.709Z,72.00
2022-08-23T04:18:21.684Z,84.00
2022-08-23T04:19:21.665Z,92.00
2022-08-23T04:20:21.670Z,104.00
2022-08-23T04:21:21.623Z,112.00
2022-08-23T04:22:21.601Z,124.00
2022-08-23T04:23:21.582Z,136.00
2022-08-23T04:24:21.560Z,152.00
2022-08-23T04:25:33.252Z,172.00
2022-08-23T04:26:24.304Z,204.00
2022-08-23T04:27:21.503Z,228.00
2022-08-23T04:28:21.481Z,228.00
2022-08-23T04:29:24.898Z,244.00
2022-08-23T04:30:22.474Z,276.00
2022-08-23T04:31:22.336Z,312.00
2022-08-23T04:32:28.186Z,340.00
2022-08-23T04:33:22.380Z,336.00
2022-08-23T04:34:21.360Z,360.00
2022-08-23T04:35:22.368Z,456.00
2022-08-23T04:36:23.459Z,484.00
2022-08-23T04:37:21.297Z,472.00
2022-08-23T04:38:24.149Z,496.00
2022-08-23T04:39:21.261Z,500.00
2022-08-23T04:40:21.298Z,504.00
2022-08-23T04:41:21.219Z,544.00
2022-08-23T04:42:21.769Z,644.00
2022-08-23T04:43:21.181Z,736.00
2022-08-23T04:44:21.162Z,796.00
2022-08-23T04:45:21.165Z,760.00
2022-08-23T04:46:21.120Z,724.00
2022-08-23T04:47:21.101Z,756.00
2022-08-23T04:48:21.078Z,808.00
2022-08-23T04:49:21.060Z,860.00
2022-08-23T04:50:21.062Z,912.00
2022-08-23T04:51:21.018Z,972.00
2022-08-23T04:52:20.995Z,1040.00
2022-08-23T04:53:20.977Z,1108.00
2022-08-23T04:54:22.753Z,1176.00
2022-08-23T04:55:20.958Z,1224.00
2022-08-23T04:56:20.915Z,1252.00
2022-08-23T04:57:20.892Z,1272.00
2022-08-23T04:58:20.869Z,1304.00
2022-08-23T04:59:20.859Z,1340.00
2022-08-23T05:00:20.856Z,1396.00
2022-08-23T05:01:21.904Z,1472.00
2022-08-23T05:02:20.793Z,1536.00
2022-08-23T05:03:20.770Z,1596.00
2022-08-23T05:04:20.744Z,1644.00
2022-08-23T05:05:20.751Z,1704.00
2022-08-23T05:06:20.699Z,1776.00
2022-08-23T05:07:20.681Z,1860.00
2022-08-23T05:08:21.659Z,1948.00
2022-08-23T05:09:20.940Z,2044.00
2022-08-23T05:10:21.645Z,2132.00
2022-08-23T05:11:20.619Z,2216.00
2022-08-23T05:12:22.970Z,2296.00
2022-08-23T05:13:20.560Z,2396.00
2022-08-23T05:14:20.542Z,2496.00
2022-08-23T05:15:20.547Z,2596.00
2022-08-23T05:16:20.497Z,2676.00
2022-08-23T05:17:20.482Z,2744.00
2022-08-23T05:18:20.457Z,2816.00
2022-08-23T05:19:20.439Z,2888.00
2022-08-23T05:20:20.443Z,2960.00
2022-08-23T05:21:20.398Z,3044.00
2022-08-23T05:22:20.373Z,3156.00
2022-08-23T05:23:20.415Z,3292.00
2022-08-23T05:24:21.335Z,3448.00
2022-08-23T05:25:20.341Z,3628.00
2022-08-23T05:26:20.295Z,3816.00
2022-08-23T05:27:20.273Z,4000.00
2022-08-23T05:28:20.249Z,4172.00
2022-08-23T05:29:20.228Z,4348.00
2022-08-23T05:30:20.232Z,4532.00
2022-08-23T05:31:20.190Z,4740.00
2022-08-23T05:32:20.166Z,4988.00
2022-08-23T05:33:20.143Z,5268.00
2022-08-23T05:34:22.531Z,5560.00
2022-08-23T05:35:20.129Z,5768.00
2022-08-23T05:36:20.084Z,5936.00
2022-08-23T05:37:20.063Z,6120.00
2022-08-23T05:38:20.896Z,6348.00
2022-08-23T05:39:26.555Z,6644.00
2022-08-23T05:40:21.081Z,7064.00
2022-08-23T05:41:20.919Z,7584.00
2022-08-23T05:42:19.961Z,8176.00
2022-08-23T05:43:19.943Z,8804.00
2022-08-23T05:44:19.933Z,9384.00
2022-08-23T05:45:21.824Z,9816.00
2022-08-23T05:46:20.885Z,10080.00
2022-08-23T05:47:23.671Z,10268.00
2022-08-23T05:48:20.842Z,10520.00
2022-08-23T05:49:21.074Z,10880.00
2022-08-23T05:50:19.836Z,11476.00
2022-08-23T05:51:19.789Z,14188.00
2022-08-23T05:52:19.773Z,28384.00
2022-08-23T05:53:19.746Z,41664.00
2022-08-23T05:54:19.728Z,45472.00
2022-08-23T05:55:19.735Z,46752.00
2022-08-23T05:56:19.692Z,44576.00
2022-08-23T05:57:19.674Z,43456.00
2022-08-23T05:58:19.659Z,46880.00
2022-08-23T05:59:19.637Z,51616.00
2022-08-23T06:00:19.657Z,51584.00
2022-08-23T06:01:19.668Z,53408.00
2022-08-23T06:02:19.588Z,50976.00
2022-08-23T06:03:19.562Z,45600.00
2022-08-23T06:04:19.545Z,43104.00
2022-08-23T06:05:19.551Z,49056.00
2022-08-23T06:06:19.508Z,49280.00
2022-08-23T06:07:19.487Z,45408.00
2022-08-23T06:08:19.467Z,23264.00
2022-08-23T06:09:19.486Z,30720.00
2022-08-23T06:10:19.463Z,53312.00
2022-08-23T06:11:19.419Z,57056.00
2022-08-23T06:12:19.395Z,56192.00
2022-08-23T06:13:19.379Z,58112.00
2022-08-23T06:14:19.403Z,61152.00
2022-08-23T06:15:19.372Z,62592.00
2022-08-23T06:16:19.328Z,63392.00
2022-08-23T06:17:19.315Z,62560.00
2022-08-23T06:18:19.296Z,61536.00
2022-08-23T06:19:19.274Z,61952.00
2022-08-23T06:20:19.355Z,61536.00
2022-08-23T06:21:19.237Z,62752.00
2022-08-23T06:22:19.221Z,62176.00
2022-08-23T06:23:19.204Z,61728.00
2022-08-23T06:24:19.188Z,60704.00
2022-08-23T06:25:19.193Z,61216.00
2022-08-23T06:26:19.153Z,62336.00
2022-08-23T06:27:19.130Z,60096.00
2022-08-23T06:28:19.113Z,58720.00
2022-08-23T06:29:20.217Z,59808.00
2022-08-23T06:30:19.104Z,58176.00
2022-08-23T06:31:19.094Z,61664.00
2022-08-23T06:32:19.091Z,64064.00
2022-08-23T06:33:19.057Z,64608.00
2022-08-23T06:34:19.013Z,63744.00
2022-08-23T06:35:37.677Z,63168.00
2022-08-23T06:36:19.976Z,60992.00
2022-08-23T06:37:18.967Z,62752.00
2022-08-23T06:38:18.943Z,59552.00
2022-08-23T06:39:18.925Z,56320.00
2022-08-23T06:40:18.980Z,57280.00
2022-08-23T06:41:18.889Z,59232.00
2022-08-23T06:42:37.417Z,62304.00
2022-08-23T06:43:20.859Z,64896.00
2022-08-23T06:44:18.840Z,67424.00
2022-08-23T06:45:18.851Z,71232.00
2022-08-23T06:46:18.833Z,71808.00
2022-08-23T06:47:19.877Z,71072.00
2022-08-23T06:48:19.067Z,72512.00
2022-08-23T06:49:19.754Z,74912.00
2022-08-23T06:50:18.764Z,72960.00
2022-08-23T06:51:18.720Z,70656.00
2022-08-23T06:52:18.745Z,70848.00
2022-08-23T06:53:18.688Z,70656.00
2022-08-23T06:54:18.675Z,68064.00
2022-08-23T06:55:18.680Z,68416.00
2022-08-23T06:56:18.636Z,70464.00
2022-08-23T06:57:18.621Z,73088.00
2022-08-23T06:58:18.601Z,72832.00
2022-08-23T06:59:18.590Z,72800.00
2022-08-23T07:00:22.139Z,72704.00
2022-08-23T07:01:44.064Z,71904.00
2022-08-23T07:02:20.675Z,69120.00
2022-08-23T07:03:18.530Z,68352.00
2022-08-23T07:04:18.507Z,68960.00
2022-08-23T07:05:18.517Z,72704.00
2022-08-23T07:06:18.483Z,74080.00
2022-08-23T07:07:18.456Z,75296.00
2022-08-23T07:08:18.440Z,76000.00
2022-08-23T07:09:18.427Z,75712.00
2022-08-23T07:10:18.436Z,76000.00
2022-08-23T07:11:18.398Z,75712.00
2022-08-23T07:12:18.379Z,75808.00
2022-08-23T07:13:18.807Z,75936.00
2022-08-23T07:14:19.377Z,75392.00
2022-08-23T07:15:18.359Z,76320.00
2022-08-23T07:16:18.361Z,75552.00
2022-08-23T07:17:18.298Z,74464.00
2022-08-23T07:18:18.284Z,70432.00
2022-08-23T07:19:18.261Z,68864.00
2022-08-23T07:20:18.275Z,69888.00
2022-08-23T07:21:18.231Z,70496.00
2022-08-23T07:22:18.215Z,71296.00
2022-08-23T07:23:18.199Z,75552.00
2022-08-23T07:24:18.184Z,77824.00
2022-08-23T07:25:18.287Z,78912.00
2022-08-23T07:26:18.153Z,77600.00
2022-08-23T07:27:18.133Z,76736.00
2022-08-23T07:28:18.122Z,77056.00
2022-08-23T07:29:18.101Z,79008.00
2022-08-23T07:30:18.118Z,80000.00
2022-08-23T07:31:18.071Z,79520.00
2022-08-23T07:32:18.713Z,77248.00
2022-08-23T07:33:19.046Z,75584.00
2022-08-23T07:34:18.033Z,74912.00
2022-08-23T07:35:18.040Z,72928.00
2022-08-23T07:36:18.408Z,72640.00
2022-08-23T07:37:18.843Z,74880.00
2022-08-23T07:38:17.963Z,74144.00
2022-08-23T07:39:17.949Z,75072.00
2022-08-23T07:40:20.385Z,76544.00
2022-08-23T07:41:17.917Z,73920.00
2022-08-23T07:42:23.601Z,51808.00
2022-08-23T07:43:18.884Z,41824.00
2022-08-23T07:44:18.146Z,41056.00
2022-08-23T07:45:17.879Z,39680.00
2022-08-23T07:46:17.876Z,38944.00
2022-08-23T07:47:17.823Z,36416.00
2022-08-23T07:48:31.762Z,36512.00
2022-08-23T07:49:19.786Z,33760.00
2022-08-23T07:50:17.797Z,32128.00
2022-08-23T07:51:17.755Z,31392.00
2022-08-23T07:52:17.742Z,31072.00
2022-08-23T07:53:27.556Z,31712.00
2022-08-23T07:54:18.703Z,32448.00
2022-08-23T07:55:17.732Z,31424.00
2022-08-23T07:56:17.668Z,31072.00
2022-08-23T07:57:17.666Z,30752.00
2022-08-23T07:58:17.640Z,32256.00
2022-08-23T07:59:17.622Z,35744.00
2022-08-23T08:00:17.636Z,48352.00
2022-08-23T08:01:17.636Z,90080.00
2022-08-23T08:02:17.702Z,89888.00
2022-08-23T08:03:17.573Z,84512.00
2022-08-23T08:04:17.537Z,81408.00
2022-08-23T08:05:21.613Z,78016.00
2022-08-23T08:06:18.506Z,79104.00
2022-08-23T08:07:20.700Z,80768.00
2022-08-23T08:08:18.471Z,79904.00
2022-08-23T08:09:17.774Z,81312.00
2022-08-23T08:10:17.466Z,80640.00
2022-08-23T08:11:17.418Z,77920.00
2022-08-23T08:12:17.668Z,82272.00
2022-08-23T08:13:17.388Z,82560.00
2022-08-23T08:14:17.373Z,82400.00
2022-08-23T08:15:17.375Z,80192.00
2022-08-23T08:16:17.354Z,75520.00
2022-08-23T08:17:17.317Z,74752.00
2022-08-23T08:18:17.297Z,78624.00
2022-08-23T08:19:18.963Z,79616.00
2022-08-23T08:20:17.292Z,76256.00
2022-08-23T08:21:17.248Z,75936.00
2022-08-23T08:22:17.231Z,77664.00
2022-08-23T08:23:17.211Z,77600.00
2022-08-23T08:24:17.199Z,75072.00
2022-08-23T08:25:17.203Z,73856.00
2022-08-23T08:26:17.161Z,71904.00
2022-08-23T08:27:17.146Z,73344.00
2022-08-23T08:28:17.127Z,71520.00
2022-08-23T08:29:17.106Z,70560.00
2022-08-23T08:30:17.125Z,70720.00
2022-08-23T08:31:17.137Z,72288.00
2022-08-23T08:32:17.058Z,70400.00
2022-08-23T08:33:17.044Z,65696.00
2022-08-23T08:34:17.021Z,67136.00
2022-08-23T08:35:17.032Z,69440.00
2022-08-23T08:36:16.989Z,67520.00
2022-08-23T08:37:16.983Z,64096.00
2022-08-23T08:38:16.953Z,67136.00
2022-08-23T08:39:16.940Z,70144.00
2022-08-23T08:40:16.938Z,68032.00
2022-08-23T08:41:16.925Z,66400.00
2022-08-23T08:42:17.776Z,67936.00
2022-08-23T08:43:16.864Z,69920.00
2022-08-23T08:44:16.852Z,72320.00
2022-08-23T08:45:16.836Z,68960.00
2022-08-23T08:46:16.895Z,67296.00
2022-08-23T08:47:16.803Z,74720.00
2022-08-23T08:48:16.786Z,73600.00
2022-08-23T08:49:16.766Z,69344.00
2022-08-23T08:50:16.751Z,68032.00
2022-08-23T08:51:16.761Z,68480.00
2022-08-23T08:52:16.716Z,65632.00
2022-08-23T08:53:16.703Z,63040.00
2022-08-23T08:54:16.684Z,69760.00
2022-08-23T08:55:16.662Z,72224.00
2022-08-23T08:56:16.672Z,69536.00
2022-08-23T08:57:16.624Z,67488.00
2022-08-23T08:58:16.609Z,64864.00
2022-08-23T08:59:16.592Z,67008.00
2022-08-23T09:00:16.572Z,69344.00
2022-08-23T09:01:16.626Z,66144.00
2022-08-23T09:02:18.212Z,66336.00
2022-08-23T09:03:17.610Z,64512.00
2022-08-23T09:04:16.508Z,59232.00
2022-08-23T09:05:16.494Z,58016.00
2022-08-23T09:06:16.503Z,59168.00
2022-08-23T09:07:16.453Z,60640.00
2022-08-23T09:08:16.442Z,59808.00
2022-08-23T09:09:16.422Z,58400.00
2022-08-23T09:10:16.403Z,61632.00
2022-08-23T09:11:16.424Z,59872.00
2022-08-23T09:12:16.376Z,61216.00
2022-08-23T09:13:16.353Z,62656.00
2022-08-23T09:14:16.339Z,56128.00
2022-08-23T09:15:16.320Z,59840.00
2022-08-23T09:16:16.393Z,60000.00
2022-08-23T09:17:16.284Z,55488.00
2022-08-23T09:18:16.269Z,59648.00
2022-08-23T09:19:16.255Z,63616.00
2022-08-23T09:20:16.243Z,58496.00
2022-08-23T09:21:16.243Z,59520.00
2022-08-23T09:22:16.195Z,60448.00
2022-08-23T09:23:16.181Z,55744.00
2022-08-23T09:24:16.168Z,58304.00
2022-08-23T09:25:16.171Z,63616.00
2022-08-23T09:26:16.137Z,56960.00
2022-08-23T09:27:16.110Z,56224.00
2022-08-23T09:28:16.096Z,54752.00
2022-08-23T09:29:16.073Z,60512.00
2022-08-23T09:30:16.081Z,63840.00
2022-08-23T09:31:16.079Z,56320.00
2022-08-23T09:32:16.019Z,53728.00
2022-08-23T09:33:16.000Z,52032.00
2022-08-23T09:34:15.987Z,50880.00
2022-08-23T09:35:15.999Z,43456.00
2022-08-23T09:36:15.949Z,25216.00
2022-08-23T09:37:15.931Z,17120.00
2022-08-23T09:38:15.932Z,16576.00
2022-08-23T09:39:15.897Z,16136.00
2022-08-23T09:40:16.452Z,15880.00
2022-08-23T09:41:15.858Z,15588.00
2022-08-23T09:42:15.839Z,15296.00
2022-08-23T09:43:15.823Z,15076.00
2022-08-23T09:44:16.155Z,14904.00
2022-08-23T09:45:15.818Z,14776.00
2022-08-23T09:46:15.841Z,14612.00
2022-08-23T09:47:15.753Z,14468.00
2022-08-23T09:48:15.737Z,14344.00
2022-08-23T09:49:15.720Z,14220.00
2022-08-23T09:50:15.767Z,14096.00
2022-08-23T09:51:15.688Z,13968.00
2022-08-23T09:52:16.114Z,13852.00
2022-08-23T09:53:16.704Z,13740.00
2022-08-23T09:54:15.868Z,13660.00
2022-08-23T09:55:15.638Z,13592.00
2022-08-23T09:56:15.653Z,13524.00
2022-08-23T09:57:15.574Z,13452.00
2022-08-23T09:58:15.557Z,13380.00
2022-08-23T09:59:15.541Z,13296.00
2022-08-23T10:00:15.612Z,13240.00
2022-08-23T10:01:15.514Z,13180.00
2022-08-23T10:02:15.483Z,13108.00
2022-08-23T10:03:15.468Z,13056.00
2022-08-23T10:04:15.504Z,12976.00
2022-08-23T10:05:15.457Z,12900.00
2022-08-23T10:06:15.444Z,12800.00
2022-08-23T10:07:15.400Z,12696.00
2022-08-23T10:08:15.373Z,12592.00
2022-08-23T10:09:15.358Z,12512.00
2022-08-23T10:10:15.459Z,12432.00
2022-08-23T10:11:15.351Z,12364.00
2022-08-23T10:12:15.304Z,12280.00
2022-08-23T10:13:15.290Z,12204.00
2022-08-23T10:14:15.270Z,12140.00
2022-08-23T10:15:15.288Z,12068.00
2022-08-23T10:16:15.284Z,11988.00
2022-08-23T10:17:15.222Z,11908.00
2022-08-23T10:18:15.200Z,11824.00
2022-08-23T10:19:15.188Z,11740.00
2022-08-23T10:20:15.194Z,11660.00
2022-08-23T10:21:20.252Z,11592.00
2022-08-23T10:22:17.131Z,11532.00
2022-08-23T10:23:15.119Z,11476.00
2022-08-23T10:24:15.113Z,11420.00
2022-08-23T10:25:15.114Z,11384.00
2022-08-23T10:26:15.060Z,11344.00
2022-08-23T10:27:15.040Z,11324.00
2022-08-23T10:28:15.024Z,11316.00
2022-08-23T10:29:15.003Z,11312.00
2022-08-23T10:30:15.001Z,11280.00
2022-08-23T10:31:16.009Z,11244.00
2022-08-23T10:32:14.962Z,11188.00
2022-08-23T10:33:18.741Z,11092.00
2022-08-23T10:34:14.910Z,11044.00
2022-08-23T10:35:14.929Z,10956.00
2022-08-23T10:36:14.876Z,10880.00
2022-08-23T10:37:14.858Z,10984.00
2022-08-23T10:38:14.839Z,10988.00
2022-08-23T10:39:14.822Z,10960.00
2022-08-23T10:40:14.898Z,10920.00
2022-08-23T10:41:14.780Z,10888.00
2022-08-23T10:42:14.763Z,10860.00
2022-08-23T10:43:14.752Z,10816.00
2022-08-23T10:44:14.736Z,10784.00
2022-08-23T10:45:14.738Z,10736.00
2022-08-23T10:46:14.721Z,10704.00
2022-08-23T10:47:14.675Z,10660.00
2022-08-23T10:48:14.658Z,10616.00
2022-08-23T10:49:14.639Z,10568.00
2022-08-23T10:50:14.650Z,10532.00
2022-08-23T10:51:14.689Z,10488.00
2022-08-23T10:52:14.749Z,10452.00
2022-08-23T10:53:14.953Z,10404.00
2022-08-23T10:54:14.539Z,10368.00
2022-08-23T10:55:14.657Z,10332.00
2022-08-23T10:56:14.503Z,10308.00
2022-08-23T10:57:14.549Z,10284.00
2022-08-23T10:58:14.469Z,10256.00
2022-08-23T10:59:14.462Z,10212.00
2022-08-23T11:00:14.460Z,10172.00
2022-08-23T11:01:14.460Z,10132.00
2022-08-23T11:02:14.791Z,10080.00
2022-08-23T11:03:14.379Z,10016.00
2022-08-23T11:04:14.360Z,9964.00
2022-08-23T11:05:14.370Z,9928.00
2022-08-23T11:06:14.455Z,9888.00
2022-08-23T11:07:14.304Z,9852.00
2022-08-23T11:08:14.284Z,9832.00
2022-08-23T11:09:14.264Z,9820.00
2022-08-23T11:10:16.663Z,9816.00
2022-08-23T11:11:14.229Z,9776.00
2022-08-23T11:12:14.217Z,9716.00
2022-08-23T11:13:14.194Z,9724.00
2022-08-23T11:14:14.174Z,9692.00
2022-08-23T11:15:14.185Z,9664.00
2022-08-23T11:16:14.217Z,9624.00
2022-08-23T11:17:14.126Z,9580.00
2022-08-23T11:18:14.104Z,9536.00
2022-08-23T11:19:14.128Z,9496.00
2022-08-23T11:20:14.100Z,9456.00
2022-08-23T11:21:14.051Z,9428.00
2022-08-23T11:22:14.035Z,9376.00
2022-08-23T11:23:14.016Z,9356.00
2022-08-23T11:24:14.002Z,9320.00
2022-08-23T11:25:14.009Z,9288.00
2022-08-23T11:26:13.964Z,9244.00
2022-08-23T11:27:13.949Z,9216.00
2022-08-23T11:28:13.935Z,9176.00
2022-08-23T11:29:13.909Z,9144.00
2022-08-23T11:30:13.924Z,9112.00
2022-08-23T11:31:13.894Z,9056.00
2022-08-23T11:32:13.860Z,9032.00
2022-08-23T11:33:14.581Z,8992.00
2022-08-23T11:34:13.822Z,8956.00
2022-08-23T11:35:13.827Z,8936.00
2022-08-23T11:36:13.781Z,8904.00
2022-08-23T11:37:13.765Z,8888.00
2022-08-23T11:38:13.753Z,8856.00
2022-08-23T11:39:13.754Z,8852.00
2022-08-23T11:40:18.080Z,8836.00
2022-08-23T11:41:14.693Z,8820.00
2022-08-23T11:42:13.671Z,8768.00
2022-08-23T11:43:13.654Z,8736.00
2022-08-23T11:44:13.634Z,8696.00
2022-08-23T11:45:13.647Z,8624.00
2022-08-23T11:46:13.640Z,8604.00
2022-08-23T11:47:13.594Z,8628.00
2022-08-23T11:48:13.558Z,8648.00
2022-08-23T11:49:13.546Z,8436.00
2022-08-23T11:50:13.555Z,8520.00
2022-08-23T11:51:13.506Z,8560.00
2022-08-23T11:52:13.495Z,8480.00
2022-08-23T11:53:13.483Z,8548.00
2022-08-23T11:54:13.453Z,8580.00
2022-08-23T11:55:13.468Z,8600.00
2022-08-23T11:56:13.418Z,8600.00
2022-08-23T11:57:13.401Z,8604.00
2022-08-23T11:58:13.382Z,8596.00
2022-08-23T11:59:13.364Z,8540.00
2022-08-23T12:00:13.375Z,8388.00
2022-08-23T12:01:13.328Z,8348.00
2022-08-23T12:02:16.014Z,8204.00
2022-08-23T12:03:14.352Z,7988.00
2022-08-23T12:04:13.276Z,7992.00
2022-08-23T12:05:13.283Z,7596.00
2022-08-23T12:06:13.237Z,7032.00
2022-08-23T12:07:13.222Z,7032.00
2022-08-23T12:08:13.197Z,6952.00
2022-08-23T12:09:13.198Z,7632.00
2022-08-23T12:10:13.191Z,8200.00
2022-08-23T12:11:13.148Z,8348.00
2022-08-23T12:12:13.132Z,8488.00
2022-08-23T12:13:13.113Z,8476.00
2022-08-23T12:14:13.098Z,8444.00
2022-08-23T12:15:13.112Z,8520.00
2022-08-23T12:16:16.797Z,8508.00
2022-08-23T12:17:13.043Z,8484.00
2022-08-23T12:18:13.024Z,8440.00
2022-08-23T12:19:13.642Z,8388.00
2022-08-23T12:20:17.129Z,8412.00
2022-08-23T12:21:12.971Z,8412.00